sensor_id;sensor_type;location;lat;lon;timestamp;P1;durP1;ratioP1;P2;durP2;ratioP2
74102;SDS011;62853;46.166;3.640;2022-12-31T00:01:00;1.20;;;1.08;;
74102;SDS011;62853;46.166;3.640;2022-12-31T00:03:26;0.93;;;0.90;;
74102;SDS011;62853;46.166;3.640;2022-12-31T00:05:51;1.45;;;1.05;;
74102;SDS011;62853;46.166;3.640;2022-12-31T00:08:17;1.30;;;0.90;;
74102;SDS011;62853;46.166;3.640;2022-12-31T00:10:43;1.27;;;0.82;;
74102;SDS011;62853;46.166;3.640;2022-12-31T00:13:09;1.58;;;1.05;;
74102;SDS011;62853;46.166;3.640;2022-12-31T00:15:35;1.17;;;0.80;;
74102;SDS011;62853;46.166;3.640;2022-12-31T00:18:01;2.63;;;1.08;;
74102;SDS011;62853;46.166;3.640;2022-12-31T00:20:27;2.17;;;1.10;;
74102;SDS011;62853;46.166;3.640;2022-12-31T00:22:52;1.13;;;1.00;;
74102;SDS011;62853;46.166;3.640;2022-12-31T00:25:17;1.20;;;1.10;;
74102;SDS011;62853;46.166;3.640;2022-12-31T00:27:43;2.47;;;1.38;;
74102;SDS011;62853;46.166;3.640;2022-12-31T00:30:08;1.33;;;1.23;;
74102;SDS011;62853;46.166;3.640;2022-12-31T00:32:34;3.50;;;1.75;;
74102;SDS011;62853;46.166;3.640;2022-12-31T00:34:59;3.30;;;1.52;;
74102;SDS011;62853;46.166;3.640;2022-12-31T00:37:25;2.45;;;1.48;;
74102;SDS011;62853;46.166;3.640;2022-12-31T00:39:50;4.15;;;1.75;;
74102;SDS011;62853;46.166;3.640;2022-12-31T00:42:16;3.05;;;2.20;;
74102;SDS011;62853;46.166;3.640;2022-12-31T00:44:41;3.17;;;1.27;;
74102;SDS011;62853;46.166;3.640;2022-12-31T00:47:06;1.77;;;1.30;;
74102;SDS011;62853;46.166;3.640;2022-12-31T00:49:32;1.13;;;1.02;;
74102;SDS011;62853;46.166;3.640;2022-12-31T00:51:57;1.20;;;1.10;;
74102;SDS011;62853;46.166;3.640;2022-12-31T00:54:22;3.50;;;1.42;;
74102;SDS011;62853;46.166;3.640;2022-12-31T00:56:48;1.77;;;1.23;;
74102;SDS011;62853;46.166;3.640;2022-12-31T00:59:13;1.48;;;1.00;;
74102;SDS011;62853;46.166;3.640;2022-12-31T01:01:38;3.05;;;1.17;;
74102;SDS011;62853;46.166;3.640;2022-12-31T01:04:11;2.58;;;1.23;;
74102;SDS011;62853;46.166;3.640;2022-12-31T01:06:39;3.13;;;1.42;;
74102;SDS011;62853;46.166;3.640;2022-12-31T01:09:06;1.80;;;0.95;;
74102;SDS011;62853;46.166;3.640;2022-12-31T01:11:32;2.00;;;0.88;;
74102;SDS011;62853;46.166;3.640;2022-12-31T01:16:30;1.17;;;0.75;;
74102;SDS011;62853;46.166;3.640;2022-12-31T01:18:57;1.98;;;0.80;;
74102;SDS011;62853;46.166;3.640;2022-12-31T01:21:24;0.90;;;0.70;;
74102;SDS011;62853;46.166;3.640;2022-12-31T01:23:50;2.03;;;1.20;;
74102;SDS011;62853;46.166;3.640;2022-12-31T01:26:16;2.13;;;1.52;;
74102;SDS011;62853;46.166;3.640;2022-12-31T01:28:43;1.42;;;1.17;;
74102;SDS011;62853;46.166;3.640;2022-12-31T01:31:11;1.08;;;0.80;;
74102;SDS011;62853;46.166;3.640;2022-12-31T01:33:38;0.73;;;0.60;;
74102;SDS011;62853;46.166;3.640;2022-12-31T01:36:06;0.45;;;0.45;;
74102;SDS011;62853;46.166;3.640;2022-12-31T01:38:34;1.42;;;0.80;;
74102;SDS011;62853;46.166;3.640;2022-12-31T01:40:59;1.67;;;1.17;;
74102;SDS011;62853;46.166;3.640;2022-12-31T01:46:23;2.72;;;0.60;;
74102;SDS011;62853;46.166;3.640;2022-12-31T01:48:50;2.80;;;0.88;;
74102;SDS011;62853;46.166;3.640;2022-12-31T01:51:19;1.63;;;0.90;;
74102;SDS011;62853;46.166;3.640;2022-12-31T01:53:46;0.35;;;0.28;;
74102;SDS011;62853;46.166;3.640;2022-12-31T01:56:12;1.48;;;0.30;;
74102;SDS011;62853;46.166;3.640;2022-12-31T01:58:45;0.20;;;0.20;;
74102;SDS011;62853;46.166;3.640;2022-12-31T02:01:16;0.28;;;0.25;;
74102;SDS011;62853;46.166;3.640;2022-12-31T02:03:46;0.65;;;0.20;;
74102;SDS011;62853;46.166;3.640;2022-12-31T02:06:16;0.60;;;0.30;;
74102;SDS011;62853;46.166;3.640;2022-12-31T02:08:47;0.52;;;0.38;;
74102;SDS011;62853;46.166;3.640;2022-12-31T02:11:31;0.50;;;0.15;;
74102;SDS011;62853;46.166;3.640;2022-12-31T02:19:48;0.38;;;0.30;;
74102;SDS011;62853;46.166;3.640;2022-12-31T02:25:40;0.20;;;0.13;;
74102;SDS011;62853;46.166;3.640;2022-12-31T02:28:15;0.28;;;0.28;;
74102;SDS011;62853;46.166;3.640;2022-12-31T02:31:05;0.20;;;0.20;;
74102;SDS011;62853;46.166;3.640;2022-12-31T02:33:38;0.28;;;0.20;;
74102;SDS011;62853;46.166;3.640;2022-12-31T02:36:09;0.30;;;0.20;;
74102;SDS011;62853;46.166;3.640;2022-12-31T02:38:39;0.30;;;0.22;;
74102;SDS011;62853;46.166;3.640;2022-12-31T02:41:14;0.20;;;0.20;;
74102;SDS011;62853;46.166;3.640;2022-12-31T02:44:00;0.20;;;0.20;;
74102;SDS011;62853;46.166;3.640;2022-12-31T02:46:38;0.30;;;0.28;;
74102;SDS011;62853;46.166;3.640;2022-12-31T02:52:16;0.20;;;0.20;;
74102;SDS011;62853;46.166;3.640;2022-12-31T02:55:01;0.22;;;0.20;;
74102;SDS011;62853;46.166;3.640;2022-12-31T03:00:50;0.40;;;0.40;;
74102;SDS011;62853;46.166;3.640;2022-12-31T03:03:38;1.33;;;0.22;;
74102;SDS011;62853;46.166;3.640;2022-12-31T03:06:05;0.40;;;0.40;;
74102;SDS011;62853;46.166;3.640;2022-12-31T03:08:33;0.10;;;0.10;;
74102;SDS011;62853;46.166;3.640;2022-12-31T03:11:18;0.20;;;0.20;;
74102;SDS011;62853;46.166;3.640;2022-12-31T03:14:03;0.25;;;0.25;;
74102;SDS011;62853;46.166;3.640;2022-12-31T03:16:28;0.85;;;0.20;;
74102;SDS011;62853;46.166;3.640;2022-12-31T03:18:54;0.32;;;0.30;;
74102;SDS011;62853;46.166;3.640;2022-12-31T03:21:38;0.75;;;0.50;;
74102;SDS011;62853;46.166;3.640;2022-12-31T03:24:22;0.20;;;0.20;;
74102;SDS011;62853;46.166;3.640;2022-12-31T03:27:06;1.85;;;0.45;;
74102;SDS011;62853;46.166;3.640;2022-12-31T03:29:31;0.38;;;0.38;;
74102;SDS011;62853;46.166;3.640;2022-12-31T03:31:56;0.20;;;0.20;;
74102;SDS011;62853;46.166;3.640;2022-12-31T03:34:22;0.20;;;0.20;;
74102;SDS011;62853;46.166;3.640;2022-12-31T03:36:47;1.00;;;0.20;;
74102;SDS011;62853;46.166;3.640;2022-12-31T03:39:12;0.10;;;0.10;;
74102;SDS011;62853;46.166;3.640;2022-12-31T03:41:38;0.95;;;0.13;;
74102;SDS011;62853;46.166;3.640;2022-12-31T03:44:03;0.80;;;0.20;;
74102;SDS011;62853;46.166;3.640;2022-12-31T03:46:29;0.20;;;0.20;;
74102;SDS011;62853;46.166;3.640;2022-12-31T03:48:54;0.30;;;0.20;;
74102;SDS011;62853;46.166;3.640;2022-12-31T03:51:19;0.63;;;0.20;;
74102;SDS011;62853;46.166;3.640;2022-12-31T03:53:45;0.50;;;0.20;;
74102;SDS011;62853;46.166;3.640;2022-12-31T03:56:10;1.00;;;0.30;;
74102;SDS011;62853;46.166;3.640;2022-12-31T03:58:35;1.48;;;0.30;;
74102;SDS011;62853;46.166;3.640;2022-12-31T04:01:01;1.35;;;0.40;;
74102;SDS011;62853;46.166;3.640;2022-12-31T04:03:26;1.67;;;0.50;;
74102;SDS011;62853;46.166;3.640;2022-12-31T04:05:53;0.50;;;0.38;;
74102;SDS011;62853;46.166;3.640;2022-12-31T04:08:19;1.00;;;0.50;;
74102;SDS011;62853;46.166;3.640;2022-12-31T04:10:45;0.85;;;0.40;;
74102;SDS011;62853;46.166;3.640;2022-12-31T04:13:10;2.83;;;0.47;;
74102;SDS011;62853;46.166;3.640;2022-12-31T04:15:35;1.98;;;0.73;;
74102;SDS011;62853;46.166;3.640;2022-12-31T04:18:01;3.17;;;0.70;;
74102;SDS011;62853;46.166;3.640;2022-12-31T04:20:26;1.83;;;0.50;;
74102;SDS011;62853;46.166;3.640;2022-12-31T04:22:51;1.38;;;0.63;;
74102;SDS011;62853;46.166;3.640;2022-12-31T04:25:17;5.00;;;0.85;;
74102;SDS011;62853;46.166;3.640;2022-12-31T04:27:42;1.08;;;0.50;;
74102;SDS011;62853;46.166;3.640;2022-12-31T04:30:08;2.17;;;0.77;;
74102;SDS011;62853;46.166;3.640;2022-12-31T04:32:35;3.30;;;0.80;;
74102;SDS011;62853;46.166;3.640;2022-12-31T04:35:00;3.40;;;0.80;;
74102;SDS011;62853;46.166;3.640;2022-12-31T04:37:25;1.98;;;0.57;;
74102;SDS011;62853;46.166;3.640;2022-12-31T04:39:51;3.22;;;0.70;;
74102;SDS011;62853;46.166;3.640;2022-12-31T04:42:16;1.67;;;0.60;;
74102;SDS011;62853;46.166;3.640;2022-12-31T04:44:41;2.13;;;0.95;;
74102;SDS011;62853;46.166;3.640;2022-12-31T04:47:07;4.50;;;0.73;;
74102;SDS011;62853;46.166;3.640;2022-12-31T04:49:32;3.20;;;0.85;;
74102;SDS011;62853;46.166;3.640;2022-12-31T04:51:58;2.75;;;0.80;;
74102;SDS011;62853;46.166;3.640;2022-12-31T04:54:23;2.70;;;0.70;;
74102;SDS011;62853;46.166;3.640;2022-12-31T04:56:48;1.80;;;0.50;;
74102;SDS011;62853;46.166;3.640;2022-12-31T04:59:14;3.42;;;0.68;;
74102;SDS011;62853;46.166;3.640;2022-12-31T05:01:39;3.08;;;0.73;;
74102;SDS011;62853;46.166;3.640;2022-12-31T05:04:04;1.95;;;0.60;;
74102;SDS011;62853;46.166;3.640;2022-12-31T05:06:30;2.50;;;0.55;;
74102;SDS011;62853;46.166;3.640;2022-12-31T05:08:55;2.03;;;0.73;;
74102;SDS011;62853;46.166;3.640;2022-12-31T05:11:21;2.45;;;0.52;;
74102;SDS011;62853;46.166;3.640;2022-12-31T05:13:46;2.10;;;0.47;;
74102;SDS011;62853;46.166;3.640;2022-12-31T05:16:11;2.92;;;0.65;;
74102;SDS011;62853;46.166;3.640;2022-12-31T05:18:37;2.63;;;0.68;;
74102;SDS011;62853;46.166;3.640;2022-12-31T05:21:02;2.60;;;0.60;;
74102;SDS011;62853;46.166;3.640;2022-12-31T05:23:28;4.47;;;0.63;;
74102;SDS011;62853;46.166;3.640;2022-12-31T05:25:54;2.38;;;0.70;;
74102;SDS011;62853;46.166;3.640;2022-12-31T05:28:20;3.17;;;0.63;;
74102;SDS011;62853;46.166;3.640;2022-12-31T05:30:48;2.95;;;0.60;;
74102;SDS011;62853;46.166;3.640;2022-12-31T05:33:15;1.45;;;0.60;;
74102;SDS011;62853;46.166;3.640;2022-12-31T05:35:41;3.55;;;1.55;;
74102;SDS011;62853;46.166;3.640;2022-12-31T05:38:06;2.53;;;0.50;;
74102;SDS011;62853;46.166;3.640;2022-12-31T05:40:32;2.15;;;0.60;;
74102;SDS011;62853;46.166;3.640;2022-12-31T05:42:57;2.30;;;0.75;;
74102;SDS011;62853;46.166;3.640;2022-12-31T05:45:22;1.25;;;0.40;;
74102;SDS011;62853;46.166;3.640;2022-12-31T05:47:48;3.67;;;0.80;;
74102;SDS011;62853;46.166;3.640;2022-12-31T05:50:14;1.25;;;0.50;;
74102;SDS011;62853;46.166;3.640;2022-12-31T05:52:40;2.15;;;0.68;;
74102;SDS011;62853;46.166;3.640;2022-12-31T05:55:06;4.00;;;1.05;;
74102;SDS011;62853;46.166;3.640;2022-12-31T05:57:32;2.35;;;0.50;;
74102;SDS011;62853;46.166;3.640;2022-12-31T05:59:57;2.50;;;0.70;;
74102;SDS011;62853;46.166;3.640;2022-12-31T06:02:23;2.53;;;0.65;;
74102;SDS011;62853;46.166;3.640;2022-12-31T06:04:48;1.67;;;0.50;;
74102;SDS011;62853;46.166;3.640;2022-12-31T06:07:14;1.52;;;0.45;;
74102;SDS011;62853;46.166;3.640;2022-12-31T06:09:39;4.05;;;0.65;;
74102;SDS011;62853;46.166;3.640;2022-12-31T06:12:05;4.20;;;0.63;;
74102;SDS011;62853;46.166;3.640;2022-12-31T06:14:31;1.98;;;0.50;;
74102;SDS011;62853;46.166;3.640;2022-12-31T06:16:56;2.30;;;0.60;;
74102;SDS011;62853;46.166;3.640;2022-12-31T06:19:22;2.83;;;0.45;;
74102;SDS011;62853;46.166;3.640;2022-12-31T06:21:47;1.27;;;0.40;;
74102;SDS011;62853;46.166;3.640;2022-12-31T06:24:13;1.05;;;0.60;;
74102;SDS011;62853;46.166;3.640;2022-12-31T06:26:39;1.95;;;0.47;;
74102;SDS011;62853;46.166;3.640;2022-12-31T06:29:04;4.07;;;0.80;;
74102;SDS011;62853;46.166;3.640;2022-12-31T06:31:29;3.13;;;0.65;;
74102;SDS011;62853;46.166;3.640;2022-12-31T06:33:55;0.77;;;0.40;;
74102;SDS011;62853;46.166;3.640;2022-12-31T06:36:20;2.30;;;0.30;;
74102;SDS011;62853;46.166;3.640;2022-12-31T06:38:46;3.40;;;0.52;;
74102;SDS011;62853;46.166;3.640;2022-12-31T06:41:12;2.50;;;0.68;;
74102;SDS011;62853;46.166;3.640;2022-12-31T06:43:40;2.97;;;0.50;;
74102;SDS011;62853;46.166;3.640;2022-12-31T06:46:07;2.45;;;0.60;;
74102;SDS011;62853;46.166;3.640;2022-12-31T06:48:35;1.67;;;0.50;;
74102;SDS011;62853;46.166;3.640;2022-12-31T06:51:09;2.53;;;0.75;;
74102;SDS011;62853;46.166;3.640;2022-12-31T06:53:39;2.30;;;0.80;;
74102;SDS011;62853;46.166;3.640;2022-12-31T06:56:05;1.83;;;0.60;;
74102;SDS011;62853;46.166;3.640;2022-12-31T06:58:32;2.85;;;0.80;;
74102;SDS011;62853;46.166;3.640;2022-12-31T07:09:07;2.25;;;0.55;;
74102;SDS011;62853;46.166;3.640;2022-12-31T07:11:55;3.17;;;1.10;;
74102;SDS011;62853;46.166;3.640;2022-12-31T07:14:40;1.85;;;0.50;;
74102;SDS011;62853;46.166;3.640;2022-12-31T07:20:05;2.10;;;0.60;;
74102;SDS011;62853;46.166;3.640;2022-12-31T07:22:34;3.70;;;0.80;;
74102;SDS011;62853;46.166;3.640;2022-12-31T07:24:59;3.47;;;0.70;;
74102;SDS011;62853;46.166;3.640;2022-12-31T07:30:07;1.80;;;0.60;;
74102;SDS011;62853;46.166;3.640;2022-12-31T07:37:53;4.63;;;0.70;;
74102;SDS011;62853;46.166;3.640;2022-12-31T07:43:26;3.28;;;0.70;;
74102;SDS011;62853;46.166;3.640;2022-12-31T07:46:13;2.53;;;0.90;;
74102;SDS011;62853;46.166;3.640;2022-12-31T07:48:46;3.20;;;0.73;;
74102;SDS011;62853;46.166;3.640;2022-12-31T07:51:11;2.28;;;0.50;;
74102;SDS011;62853;46.166;3.640;2022-12-31T07:53:37;1.80;;;0.55;;
74102;SDS011;62853;46.166;3.640;2022-12-31T07:56:03;2.88;;;0.75;;
74102;SDS011;62853;46.166;3.640;2022-12-31T08:01:11;1.85;;;0.70;;
74102;SDS011;62853;46.166;3.640;2022-12-31T08:03:53;3.78;;;0.70;;
74102;SDS011;62853;46.166;3.640;2022-12-31T08:06:49;2.30;;;0.75;;
74102;SDS011;62853;46.166;3.640;2022-12-31T08:09:43;2.75;;;0.93;;
74102;SDS011;62853;46.166;3.640;2022-12-31T08:12:30;3.00;;;0.70;;
74102;SDS011;62853;46.166;3.640;2022-12-31T08:14:58;1.67;;;0.70;;
74102;SDS011;62853;46.166;3.640;2022-12-31T08:17:24;4.57;;;0.60;;
74102;SDS011;62853;46.166;3.640;2022-12-31T08:19:50;2.60;;;0.70;;
74102;SDS011;62853;46.166;3.640;2022-12-31T08:25:24;3.58;;;0.63;;
74102;SDS011;62853;46.166;3.640;2022-12-31T08:33:16;3.15;;;1.00;;
74102;SDS011;62853;46.166;3.640;2022-12-31T08:46:28;1.85;;;0.82;;
74102;SDS011;62853;46.166;3.640;2022-12-31T08:48:57;0.90;;;0.60;;
74102;SDS011;62853;46.166;3.640;2022-12-31T08:51:23;1.83;;;0.90;;
74102;SDS011;62853;46.166;3.640;2022-12-31T08:53:50;2.35;;;0.60;;
74102;SDS011;62853;46.166;3.640;2022-12-31T09:01:40;3.00;;;0.93;;
74102;SDS011;62853;46.166;3.640;2022-12-31T09:07:01;3.03;;;0.75;;
74102;SDS011;62853;46.166;3.640;2022-12-31T09:09:36;3.03;;;0.75;;
74102;SDS011;62853;46.166;3.640;2022-12-31T09:12:21;4.18;;;0.75;;
74102;SDS011;62853;46.166;3.640;2022-12-31T09:14:59;2.22;;;0.80;;
74102;SDS011;62853;46.166;3.640;2022-12-31T09:19:52;1.73;;;0.73;;
74102;SDS011;62853;46.166;3.640;2022-12-31T09:22:18;2.30;;;0.80;;
74102;SDS011;62853;46.166;3.640;2022-12-31T09:24:44;3.38;;;0.70;;
74102;SDS011;62853;46.166;3.640;2022-12-31T09:27:14;3.55;;;0.98;;
74102;SDS011;62853;46.166;3.640;2022-12-31T09:38:00;3.53;;;1.02;;
74102;SDS011;62853;46.166;3.640;2022-12-31T09:45:55;3.80;;;0.90;;
74102;SDS011;62853;46.166;3.640;2022-12-31T09:54:37;4.43;;;1.00;;
74102;SDS011;62853;46.166;3.640;2022-12-31T10:08:28;3.90;;;0.85;;
74102;SDS011;62853;46.166;3.640;2022-12-31T10:11:05;1.40;;;0.70;;
74102;SDS011;62853;46.166;3.640;2022-12-31T10:13:43;5.40;;;1.63;;
74102;SDS011;62853;46.166;3.640;2022-12-31T10:16:42;4.97;;;1.20;;
74102;SDS011;62853;46.166;3.640;2022-12-31T10:19:25;3.83;;;0.98;;
74102;SDS011;62853;46.166;3.640;2022-12-31T10:30:15;4.07;;;1.60;;
74102;SDS011;62853;46.166;3.640;2022-12-31T10:38:25;12.65;;;1.75;;
74102;SDS011;62853;46.166;3.640;2022-12-31T10:55:07;4.50;;;1.40;;
74102;SDS011;62853;46.166;3.640;2022-12-31T10:57:50;3.80;;;0.90;;
74102;SDS011;62853;46.166;3.640;2022-12-31T11:00:43;2.92;;;1.05;;
74102;SDS011;62853;46.166;3.640;2022-12-31T11:03:30;3.80;;;0.95;;
74102;SDS011;62853;46.166;3.640;2022-12-31T11:26:21;4.05;;;1.45;;
74102;SDS011;62853;46.166;3.640;2022-12-31T11:34:24;4.25;;;1.48;;
74102;SDS011;62853;46.166;3.640;2022-12-31T12:04:15;4.65;;;1.10;;
74102;SDS011;62853;46.166;3.640;2022-12-31T12:06:40;4.15;;;1.73;;
74102;SDS011;62853;46.166;3.640;2022-12-31T12:09:10;5.25;;;1.40;;
74102;SDS011;62853;46.166;3.640;2022-12-31T12:16:59;5.32;;;1.20;;
74102;SDS011;62853;46.166;3.640;2022-12-31T12:19:27;3.97;;;1.30;;
74102;SDS011;62853;46.166;3.640;2022-12-31T12:21:55;5.03;;;1.20;;
74102;SDS011;62853;46.166;3.640;2022-12-31T12:24:24;6.72;;;1.25;;
74102;SDS011;62853;46.166;3.640;2022-12-31T12:26:51;4.18;;;1.08;;
74102;SDS011;62853;46.166;3.640;2022-12-31T12:29:21;3.58;;;1.00;;
74102;SDS011;62853;46.166;3.640;2022-12-31T12:31:55;3.83;;;1.20;;
74102;SDS011;62853;46.166;3.640;2022-12-31T12:34:29;4.43;;;1.33;;
74102;SDS011;62853;46.166;3.640;2022-12-31T12:37:00;5.50;;;1.10;;
74102;SDS011;62853;46.166;3.640;2022-12-31T12:39:27;3.42;;;1.13;;
74102;SDS011;62853;46.166;3.640;2022-12-31T12:44:26;4.75;;;1.30;;
74102;SDS011;62853;46.166;3.640;2022-12-31T12:46:51;2.67;;;1.15;;
74102;SDS011;62853;46.166;3.640;2022-12-31T12:49:22;4.32;;;1.67;;
74102;SDS011;62853;46.166;3.640;2022-12-31T12:57:40;3.78;;;1.15;;
74102;SDS011;62853;46.166;3.640;2022-12-31T13:00:22;5.18;;;1.17;;
74102;SDS011;62853;46.166;3.640;2022-12-31T13:06:27;6.55;;;1.52;;
74102;SDS011;62853;46.166;3.640;2022-12-31T13:22:46;4.88;;;1.20;;
74102;SDS011;62853;46.166;3.640;2022-12-31T13:28:18;3.40;;;1.27;;
74102;SDS011;62853;46.166;3.640;2022-12-31T13:31:06;5.80;;;1.45;;
74102;SDS011;62853;46.166;3.640;2022-12-31T13:33:41;6.35;;;2.35;;
74102;SDS011;62853;46.166;3.640;2022-12-31T13:36:12;4.20;;;1.50;;
74102;SDS011;62853;46.166;3.640;2022-12-31T13:38:47;5.18;;;1.85;;
74102;SDS011;62853;46.166;3.640;2022-12-31T13:41:27;3.75;;;1.83;;
74102;SDS011;62853;46.166;3.640;2022-12-31T13:46:46;7.63;;;1.83;;
74102;SDS011;62853;46.166;3.640;2022-12-31T13:49:20;10.45;;;2.13;;
74102;SDS011;62853;46.166;3.640;2022-12-31T13:59:56;9.88;;;1.80;;
74102;SDS011;62853;46.166;3.640;2022-12-31T14:02:31;6.63;;;1.80;;
74102;SDS011;62853;46.166;3.640;2022-12-31T14:05:24;3.70;;;1.70;;
74102;SDS011;62853;46.166;3.640;2022-12-31T14:07:54;6.32;;;1.80;;
74102;SDS011;62853;46.166;3.640;2022-12-31T14:10:33;6.50;;;1.95;;
74102;SDS011;62853;46.166;3.640;2022-12-31T14:16:23;6.57;;;1.70;;
74102;SDS011;62853;46.166;3.640;2022-12-31T14:22:14;5.18;;;1.60;;
74102;SDS011;62853;46.166;3.640;2022-12-31T14:24:53;7.47;;;2.05;;
74102;SDS011;62853;46.166;3.640;2022-12-31T14:27:24;7.70;;;1.70;;
74102;SDS011;62853;46.166;3.640;2022-12-31T14:29:59;5.32;;;1.65;;
74102;SDS011;62853;46.166;3.640;2022-12-31T14:37:53;8.27;;;1.80;;
74102;SDS011;62853;46.166;3.640;2022-12-31T14:40:24;8.82;;;1.67;;
74102;SDS011;62853;46.166;3.640;2022-12-31T14:43:21;5.38;;;1.40;;
74102;SDS011;62853;46.166;3.640;2022-12-31T14:45:59;5.10;;;1.63;;
74102;SDS011;62853;46.166;3.640;2022-12-31T14:51:44;5.65;;;1.90;;
74102;SDS011;62853;46.166;3.640;2022-12-31T14:54:26;7.35;;;2.10;;
74102;SDS011;62853;46.166;3.640;2022-12-31T14:56:53;4.85;;;1.30;;
74102;SDS011;62853;46.166;3.640;2022-12-31T14:59:28;5.63;;;1.60;;
74102;SDS011;62853;46.166;3.640;2022-12-31T15:01:55;5.80;;;1.90;;
74102;SDS011;62853;46.166;3.640;2022-12-31T15:04:31;5.63;;;1.70;;
74102;SDS011;62853;46.166;3.640;2022-12-31T15:07:04;5.72;;;1.63;;
74102;SDS011;62853;46.166;3.640;2022-12-31T15:24:16;7.20;;;2.20;;
74102;SDS011;62853;46.166;3.640;2022-12-31T15:26:54;3.55;;;1.67;;
74102;SDS011;62853;46.166;3.640;2022-12-31T15:31:50;4.28;;;2.22;;
74102;SDS011;62853;46.166;3.640;2022-12-31T15:34:35;3.97;;;1.58;;
74102;SDS011;62853;46.166;3.640;2022-12-31T15:37:02;6.35;;;2.08;;
74102;SDS011;62853;46.166;3.640;2022-12-31T15:41:55;3.75;;;1.63;;
74102;SDS011;62853;46.166;3.640;2022-12-31T15:44:39;6.45;;;1.85;;
74102;SDS011;62853;46.166;3.640;2022-12-31T15:49:58;4.75;;;1.83;;
74102;SDS011;62853;46.166;3.640;2022-12-31T15:52:40;4.18;;;1.90;;
74102;SDS011;62853;46.166;3.640;2022-12-31T15:55:10;6.05;;;1.92;;
74102;SDS011;62853;46.166;3.640;2022-12-31T15:57:57;5.88;;;1.98;;
74102;SDS011;62853;46.166;3.640;2022-12-31T16:00:28;5.20;;;2.00;;
74102;SDS011;62853;46.166;3.640;2022-12-31T16:03:16;4.30;;;2.30;;
74102;SDS011;62853;46.166;3.640;2022-12-31T16:05:51;4.20;;;1.98;;
74102;SDS011;62853;46.166;3.640;2022-12-31T16:08:22;7.50;;;2.80;;
74102;SDS011;62853;46.166;3.640;2022-12-31T16:10:52;5.05;;;2.55;;
74102;SDS011;62853;46.166;3.640;2022-12-31T16:13:19;7.78;;;2.50;;
74102;SDS011;62853;46.166;3.640;2022-12-31T16:15:52;4.30;;;2.47;;
74102;SDS011;62853;46.166;3.640;2022-12-31T16:18:24;3.33;;;1.80;;
74102;SDS011;62853;46.166;3.640;2022-12-31T16:20:49;3.53;;;1.75;;
74102;SDS011;62853;46.166;3.640;2022-12-31T16:23:23;6.13;;;2.00;;
74102;SDS011;62853;46.166;3.640;2022-12-31T16:25:50;5.82;;;2.10;;
74102;SDS011;62853;46.166;3.640;2022-12-31T16:28:19;6.75;;;2.35;;
74102;SDS011;62853;46.166;3.640;2022-12-31T16:31:07;5.88;;;2.10;;
74102;SDS011;62853;46.166;3.640;2022-12-31T16:33:40;5.22;;;2.50;;
74102;SDS011;62853;46.166;3.640;2022-12-31T16:36:05;4.15;;;2.00;;
74102;SDS011;62853;46.166;3.640;2022-12-31T16:38:42;3.17;;;1.95;;
74102;SDS011;62853;46.166;3.640;2022-12-31T16:41:14;4.30;;;1.90;;
74102;SDS011;62853;46.166;3.640;2022-12-31T16:43:44;8.55;;;2.28;;
74102;SDS011;62853;46.166;3.640;2022-12-31T16:48:59;8.45;;;2.15;;
74102;SDS011;62853;46.166;3.640;2022-12-31T16:51:39;4.90;;;1.52;;
74102;SDS011;62853;46.166;3.640;2022-12-31T16:54:05;5.60;;;2.10;;
74102;SDS011;62853;46.166;3.640;2022-12-31T16:56:44;5.53;;;2.08;;
74102;SDS011;62853;46.166;3.640;2022-12-31T16:59:14;4.03;;;1.98;;
74102;SDS011;62853;46.166;3.640;2022-12-31T17:01:53;6.50;;;1.83;;
74102;SDS011;62853;46.166;3.640;2022-12-31T17:04:20;3.47;;;1.83;;
74102;SDS011;62853;46.166;3.640;2022-12-31T17:06:47;6.60;;;2.10;;
74102;SDS011;62853;46.166;3.640;2022-12-31T17:09:14;4.90;;;2.22;;
74102;SDS011;62853;46.166;3.640;2022-12-31T17:14:15;3.83;;;1.63;;
74102;SDS011;62853;46.166;3.640;2022-12-31T17:17:02;6.88;;;2.05;;
74102;SDS011;62853;46.166;3.640;2022-12-31T17:25:02;3.42;;;2.10;;
74102;SDS011;62853;46.166;3.640;2022-12-31T17:27:29;4.90;;;2.13;;
74102;SDS011;62853;46.166;3.640;2022-12-31T17:30:16;4.03;;;1.70;;
74102;SDS011;62853;46.166;3.640;2022-12-31T17:35:33;5.78;;;2.03;;
74102;SDS011;62853;46.166;3.640;2022-12-31T17:40:45;6.20;;;1.73;;
74102;SDS011;62853;46.166;3.640;2022-12-31T17:43:13;4.22;;;1.95;;
74102;SDS011;62853;46.166;3.640;2022-12-31T17:45:40;4.97;;;1.85;;
74102;SDS011;62853;46.166;3.640;2022-12-31T17:48:13;5.55;;;1.60;;
74102;SDS011;62853;46.166;3.640;2022-12-31T17:50:51;4.47;;;1.85;;
74102;SDS011;62853;46.166;3.640;2022-12-31T17:53:17;3.05;;;1.60;;
74102;SDS011;62853;46.166;3.640;2022-12-31T17:55:44;6.35;;;2.28;;
74102;SDS011;62853;46.166;3.640;2022-12-31T17:58:15;5.53;;;2.30;;
74102;SDS011;62853;46.166;3.640;2022-12-31T18:00:44;3.38;;;1.85;;
74102;SDS011;62853;46.166;3.640;2022-12-31T18:03:09;4.68;;;1.70;;
74102;SDS011;62853;46.166;3.640;2022-12-31T18:05:34;2.90;;;1.50;;
74102;SDS011;62853;46.166;3.640;2022-12-31T18:08:00;6.25;;;1.70;;
74102;SDS011;62853;46.166;3.640;2022-12-31T18:10:25;6.13;;;1.77;;
74102;SDS011;62853;46.166;3.640;2022-12-31T18:12:52;4.15;;;1.80;;
74102;SDS011;62853;46.166;3.640;2022-12-31T18:15:22;4.05;;;2.00;;
74102;SDS011;62853;46.166;3.640;2022-12-31T18:17:48;8.77;;;2.22;;
74102;SDS011;62853;46.166;3.640;2022-12-31T18:20:14;4.03;;;1.60;;
74102;SDS011;62853;46.166;3.640;2022-12-31T18:22:40;3.75;;;1.90;;
74102;SDS011;62853;46.166;3.640;2022-12-31T18:25:11;6.60;;;2.35;;
74102;SDS011;62853;46.166;3.640;2022-12-31T18:27:40;4.97;;;1.80;;
74102;SDS011;62853;46.166;3.640;2022-12-31T18:30:07;5.00;;;1.83;;
74102;SDS011;62853;46.166;3.640;2022-12-31T18:32:34;3.30;;;1.40;;
74102;SDS011;62853;46.166;3.640;2022-12-31T18:35:00;5.32;;;1.80;;
74102;SDS011;62853;46.166;3.640;2022-12-31T18:37:27;7.75;;;1.92;;
74102;SDS011;62853;46.166;3.640;2022-12-31T18:39:53;7.78;;;1.90;;
74102;SDS011;62853;46.166;3.640;2022-12-31T18:42:19;4.68;;;1.70;;
74102;SDS011;62853;46.166;3.640;2022-12-31T18:44:47;4.93;;;2.05;;
74102;SDS011;62853;46.166;3.640;2022-12-31T18:47:14;6.43;;;1.70;;
74102;SDS011;62853;46.166;3.640;2022-12-31T18:49:41;4.40;;;1.98;;
74102;SDS011;62853;46.166;3.640;2022-12-31T18:52:12;6.30;;;1.60;;
74102;SDS011;62853;46.166;3.640;2022-12-31T18:54:42;4.68;;;1.80;;
74102;SDS011;62853;46.166;3.640;2022-12-31T18:57:09;5.85;;;1.85;;
74102;SDS011;62853;46.166;3.640;2022-12-31T18:59:35;6.70;;;2.10;;
74102;SDS011;62853;46.166;3.640;2022-12-31T19:02:00;7.75;;;2.42;;
74102;SDS011;62853;46.166;3.640;2022-12-31T19:04:25;6.80;;;2.28;;
74102;SDS011;62853;46.166;3.640;2022-12-31T19:06:51;4.95;;;2.20;;
74102;SDS011;62853;46.166;3.640;2022-12-31T19:09:16;6.35;;;2.30;;
74102;SDS011;62853;46.166;3.640;2022-12-31T19:11:42;5.55;;;2.20;;
74102;SDS011;62853;46.166;3.640;2022-12-31T19:14:25;6.28;;;2.10;;
74102;SDS011;62853;46.166;3.640;2022-12-31T19:16:51;5.60;;;1.95;;
74102;SDS011;62853;46.166;3.640;2022-12-31T19:19:20;5.18;;;2.20;;
74102;SDS011;62853;46.166;3.640;2022-12-31T19:21:47;6.18;;;2.33;;
74102;SDS011;62853;46.166;3.640;2022-12-31T19:24:22;6.15;;;2.33;;
74102;SDS011;62853;46.166;3.640;2022-12-31T19:26:50;7.00;;;2.40;;
74102;SDS011;62853;46.166;3.640;2022-12-31T19:29:18;6.20;;;2.42;;
74102;SDS011;62853;46.166;3.640;2022-12-31T19:31:45;7.15;;;3.03;;
74102;SDS011;62853;46.166;3.640;2022-12-31T19:34:11;4.05;;;2.05;;
74102;SDS011;62853;46.166;3.640;2022-12-31T19:36:36;6.53;;;2.15;;
74102;SDS011;62853;46.166;3.640;2022-12-31T19:39:03;7.50;;;1.83;;
74102;SDS011;62853;46.166;3.640;2022-12-31T19:41:29;6.65;;;2.67;;
74102;SDS011;62853;46.166;3.640;2022-12-31T19:43:55;9.25;;;2.45;;
74102;SDS011;62853;46.166;3.640;2022-12-31T19:46:20;4.30;;;1.85;;
74102;SDS011;62853;46.166;3.640;2022-12-31T19:48:48;6.78;;;1.90;;
74102;SDS011;62853;46.166;3.640;2022-12-31T19:51:16;6.63;;;2.35;;